Time;durP1;ratioP1;P1;durP2;ratioP2;P2;SDS_P1;SDS_P2;PMS_P1;PMS_P2;Temp;Humidity;BMP_temperature;BMP_pressure;BME280_temperature;BME280_humidity;BME280_pressure;Samples;Min_cycle;Max_cycle;Signal;HPM_P1;HPM_P2
2023/05/06 00:00:14;;;;;;;19.35;14.63;;;14.80;99.90;;;;;;5126664;27;20086;-70
2023/05/06 00:02:40;;;;;;;20.92;16.83;;;14.80;99.90;;;;;;5127065;27;20382;-69
2023/05/06 00:05:06;;;;;;;20.05;16.52;;;14.80;99.90;;;;;;5124887;27;20019;-69
2023/05/06 00:07:32;;;;;;;21.67;16.73;;;14.80;99.90;;;;;;5125454;27;20066;-69
2023/05/06 00:09:58;;;;;;;22.50;18.65;;;14.70;99.90;;;;;;5127400;27;20108;-70
2023/05/06 00:12:23;;;;;;;25.45;18.63;;;14.80;99.90;;;;;;5109193;27;20475;-70
2023/05/06 00:14:49;;;;;;;23.88;17.25;;;14.70;99.90;;;;;;5126331;27;20462;-69
2023/05/06 00:17:15;;;;;;;23.75;19.00;;;14.70;99.90;;;;;;5126031;27;20055;-69
2023/05/06 00:19:41;;;;;;;24.95;17.88;;;14.70;99.90;;;;;;5127227;27;20444;-69
2023/05/06 00:22:07;;;;;;;22.65;17.08;;;14.70;99.90;;;;;;5126459;27;20027;-69
2023/05/06 00:24:32;;;;;;;23.75;18.73;;;14.60;99.90;;;;;;5126462;27;20471;-69
2023/05/06 00:26:58;;;;;;;26.42;19.10;;;14.60;99.90;;;;;;5127213;27;20035;-69
2023/05/06 00:29:24;;;;;;;22.30;16.48;;;14.60;99.90;;;;;;5126807;27;20049;-69
2023/05/06 00:31:49;;;;;;;25.35;18.30;;;14.60;99.90;;;;;;5125815;27;20494;-70
2023/05/06 00:34:15;;;;;;;27.38;19.10;;;14.50;99.90;;;;;;5125667;27;20107;-70
2023/05/06 00:36:41;;;;;;;26.02;18.38;;;14.50;99.90;;;;;;5127621;27;20547;-69
2023/05/06 00:39:08;;;;;;;22.45;18.50;;;14.40;99.90;;;;;;5122432;27;20150;-70
2023/05/06 00:41:34;;;;;;;24.27;19.40;;;14.40;99.90;;;;;;5121841;27;20068;-70
2023/05/06 00:44:00;;;;;;;27.98;19.00;;;14.40;99.90;;;;;;5122029;27;20023;-70
2023/05/06 00:46:26;;;;;;;25.20;20.23;;;14.30;99.90;;;;;;5123001;27;20027;-70
2023/05/06 00:48:52;;;;;;;24.52;19.50;;;14.30;99.90;;;;;;5121510;28;20051;-71
2023/05/06 00:51:18;;;;;;;24.25;18.60;;;14.30;99.90;;;;;;5124514;28;20049;-71
2023/05/06 00:53:45;;;;;;;26.25;20.40;;;14.30;99.90;;;;;;5122316;28;20023;-72
2023/05/06 00:56:12;;;;;;;24.80;19.42;;;14.30;99.90;;;;;;5122046;28;20483;-70
2023/05/06 00:58:38;;;;;;;21.75;18.88;;;14.20;99.90;;;;;;5127510;28;20030;-71
2023/05/06 01:01:04;;;;;;;20.85;16.88;;;14.20;99.90;;;;;;5122765;28;20024;-70
2023/05/06 01:03:30;;;;;;;19.15;15.45;;;14.20;99.90;;;;;;5129819;28;20023;-71
2023/05/06 01:06:36;;;;;;;17.85;14.45;;;14.10;99.90;;;;;;5121677;28;20030;-71
2023/05/06 01:09:23;;;;;;;20.98;15.98;;;14.10;99.90;;;;;;5123127;28;20024;-70
2023/05/06 01:11:58;;;;;;;19.60;16.80;;;14.10;99.90;;;;;;5123052;28;20050;-70
2023/05/06 01:14:29;;;;;;;19.25;15.55;;;14.10;99.90;;;;;;5122203;28;20072;-71
2023/05/06 01:17:02;;;;;;;21.48;17.05;;;14.10;99.90;;;;;;5121786;28;20028;-71
2023/05/06 01:19:58;;;;;;;23.02;16.95;;;13.90;99.90;;;;;;5120735;28;20046;-71
2023/05/06 01:22:25;;;;;;;20.17;16.80;;;14.00;99.90;;;;;;5107926;28;20040;-70
2023/05/06 01:24:51;;;;;;;20.23;16.80;;;13.90;99.90;;;;;;5127985;28;20027;-70
2023/05/06 01:27:17;;;;;;;20.88;16.83;;;13.90;99.90;;;;;;5123653;28;20407;-70
2023/05/06 01:29:45;;;;;;;18.92;15.13;;;13.90;99.90;;;;;;5122713;28;20020;-71
2023/05/06 01:32:20;;;;;;;16.63;13.90;;;13.90;99.90;;;;;;5123431;28;20059;-70
2023/05/06 01:34:56;;;;;;;13.40;11.85;;;13.90;99.90;;;;;;5120426;28;20024;-70
2023/05/06 01:37:36;;;;;;;14.20;11.40;;;13.90;99.90;;;;;;5121098;28;20383;-70
2023/05/06 01:40:04;;;;;;;16.13;12.32;;;13.80;99.90;;;;;;5123073;28;20012;-70
2023/05/06 01:42:32;;;;;;;16.75;14.10;;;13.80;99.90;;;;;;5121288;28;20041;-70
2023/05/06 01:45:00;;;;;;;17.55;13.45;;;13.70;99.90;;;;;;5121842;28;20049;-70
2023/05/06 01:47:26;;;;;;;19.10;14.45;;;13.70;99.90;;;;;;5116892;28;20038;-70
2023/05/06 01:49:52;;;;;;;15.98;13.38;;;13.70;99.90;;;;;;5116741;28;20024;-70
2023/05/06 01:52:20;;;;;;;13.35;11.95;;;13.70;99.90;;;;;;5121908;27;20053;-70
2023/05/06 01:54:45;;;;;;;13.00;11.65;;;13.70;99.90;;;;;;5126217;27;20015;-70
2023/05/06 01:57:11;;;;;;;16.25;12.07;;;13.60;99.90;;;;;;5124376;27;20433;-70
2023/05/06 01:59:37;;;;;;;15.05;12.50;;;13.60;99.90;;;;;;5125806;27;20028;-70
2023/05/06 02:02:02;;;;;;;16.23;13.52;;;13.60;99.90;;;;;;5125367;27;20114;-70
2023/05/06 02:04:28;;;;;;;13.40;11.82;;;13.60;99.90;;;;;;5125195;27;20031;-70
2023/05/06 02:06:54;;;;;;;18.35;12.15;;;13.60;99.90;;;;;;5126665;27;20374;-70
2023/05/06 02:09:19;;;;;;;16.05;12.73;;;13.60;99.90;;;;;;5124418;27;20023;-70
2023/05/06 02:11:45;;;;;;;15.70;10.95;;;13.50;99.90;;;;;;5125101;27;20505;-70
2023/05/06 02:14:11;;;;;;;12.40;10.98;;;13.50;99.90;;;;;;5127742;27;20380;-70
2023/05/06 02:16:36;;;;;;;13.65;11.07;;;13.60;99.90;;;;;;5130058;27;20436;-71
2023/05/06 02:19:02;;;;;;;12.82;10.00;;;13.50;99.90;;;;;;5126936;27;20506;-71
2023/05/06 02:21:27;;;;;;;12.25;10.65;;;13.50;99.90;;;;;;5124116;27;20098;-70
2023/05/06 02:23:53;;;;;;;11.70;9.45;;;13.50;99.90;;;;;;5128649;27;20022;-70
2023/05/06 02:26:19;;;;;;;10.95;9.73;;;13.50;99.90;;;;;;5125366;27;20491;-70
2023/05/06 02:28:45;;;;;;;11.50;9.35;;;13.50;99.90;;;;;;5125728;27;20489;-70
2023/05/06 02:31:14;;;;;;;13.88;9.80;;;13.40;99.90;;;;;;5117954;27;20027;-70
2023/05/06 02:33:40;;;;;;;12.23;10.63;;;13.40;99.90;;;;;;5115226;28;20111;-70
2023/05/06 02:36:06;;;;;;;13.57;10.05;;;13.40;99.90;;;;;;5114694;28;20098;-71
2023/05/06 02:38:32;;;;;;;12.25;9.40;;;13.40;99.90;;;;;;5114876;28;20092;-70
2023/05/06 02:40:57;;;;;;;10.57;8.98;;;13.40;99.90;;;;;;5114828;27;20032;-70
2023/05/06 02:43:23;;;;;;;11.63;9.75;;;13.40;99.90;;;;;;5135676;27;20478;-70
2023/05/06 02:45:49;;;;;;;11.77;9.50;;;13.30;99.90;;;;;;5134777;27;20023;-71
2023/05/06 02:48:15;;;;;;;12.38;9.38;;;13.30;99.90;;;;;;5135678;27;20076;-71
2023/05/06 02:50:40;;;;;;;10.05;9.02;;;13.40;99.90;;;;;;5135529;27;20467;-70
2023/05/06 02:53:07;;;;;;;9.95;8.52;;;13.30;99.90;;;;;;5135434;27;20023;-70
2023/05/06 02:55:33;;;;;;;9.73;8.30;;;13.30;99.90;;;;;;5133379;27;20481;-70
2023/05/06 02:57:59;;;;;;;12.55;8.35;;;13.30;99.90;;;;;;5133043;27;20118;-70
2023/05/06 03:00:24;;;;;;;13.20;8.40;;;13.30;99.90;;;;;;5134018;27;20047;-70
2023/05/06 03:02:50;;;;;;;15.45;9.10;;;13.30;99.90;;;;;;5135431;27;20092;-70
2023/05/06 03:05:16;;;;;;;12.60;7.72;;;13.30;99.90;;;;;;5133350;27;20026;-70
2023/05/06 03:07:42;;;;;;;12.05;8.15;;;13.30;99.90;;;;;;5135091;27;20023;-70
2023/05/06 03:10:08;;;;;;;9.45;7.72;;;13.30;99.90;;;;;;5133717;27;20038;-70
2023/05/06 03:12:34;;;;;;;9.70;8.07;;;13.20;99.90;;;;;;5135036;27;20027;-70
2023/05/06 03:15:00;;;;;;;10.13;7.38;;;13.20;99.90;;;;;;5134401;27;20030;-69
2023/05/06 03:17:25;;;;;;;8.82;7.25;;;13.20;99.90;;;;;;5133771;27;20035;-70
2023/05/06 03:19:51;;;;;;;9.90;8.68;;;13.10;99.90;;;;;;5134771;27;20037;-69
2023/05/06 03:22:17;;;;;;;11.75;8.20;;;13.20;99.90;;;;;;5133107;27;20023;-70
2023/05/06 03:24:42;;;;;;;11.18;8.80;;;13.10;99.90;;;;;;5134446;27;20348;-70
2023/05/06 03:27:08;;;;;;;9.73;8.32;;;13.10;99.90;;;;;;5134346;27;20030;-70
2023/05/06 03:29:34;;;;;;;11.68;7.63;;;13.00;99.90;;;;;;5134825;27;20467;-69
2023/05/06 03:32:03;;;;;;;10.25;8.15;;;13.10;99.90;;;;;;5115575;27;20561;-70
2023/05/06 03:34:29;;;;;;;9.30;7.20;;;13.10;99.90;;;;;;5133193;27;20530;-70
2023/05/06 03:36:56;;;;;;;10.50;8.32;;;13.00;99.90;;;;;;5132975;27;20114;-69
2023/05/06 03:39:22;;;;;;;9.52;7.88;;;13.00;99.90;;;;;;5134406;27;20479;-70
2023/05/06 03:41:48;;;;;;;9.82;7.35;;;13.10;99.90;;;;;;5134755;27;20026;-70
2023/05/06 03:44:13;;;;;;;10.73;7.13;;;13.00;99.90;;;;;;5134123;27;20027;-69
2023/05/06 03:46:40;;;;;;;8.98;7.40;;;13.00;99.90;;;;;;5134430;27;20031;-70
2023/05/06 03:49:06;;;;;;;7.78;6.88;;;13.00;99.90;;;;;;5115809;27;20023;-70
2023/05/06 03:51:33;;;;;;;9.40;8.40;;;12.90;99.90;;;;;;5134470;27;20038;-69
2023/05/06 03:53:59;;;;;;;10.13;8.65;;;12.90;99.90;;;;;;5133898;27;20023;-70
2023/05/06 03:56:24;;;;;;;9.43;7.40;;;12.90;99.90;;;;;;5134489;27;20094;-70
2023/05/06 03:58:50;;;;;;;10.30;6.95;;;12.90;99.90;;;;;;5133987;27;20026;-69
2023/05/06 04:01:17;;;;;;;10.23;6.95;;;12.90;99.90;;;;;;5134429;27;20503;-70
2023/05/06 04:03:43;;;;;;;13.25;7.35;;;12.90;99.90;;;;;;5133838;27;20105;-70
2023/05/06 04:06:08;;;;;;;15.63;9.00;;;12.80;99.90;;;;;;5133663;27;20140;-69
2023/05/06 04:08:34;;;;;;;13.02;10.15;;;12.80;99.90;;;;;;5133940;27;20562;-70
2023/05/06 04:11:04;;;;;;;13.20;9.07;;;12.80;99.90;;;;;;5132886;27;20435;-70
2023/05/06 04:13:30;;;;;;;10.90;8.70;;;12.80;99.90;;;;;;5133250;27;20475;-70
2023/05/06 04:15:56;;;;;;;13.15;8.57;;;12.80;99.90;;;;;;5133286;27;20064;-69
2023/05/06 04:18:21;;;;;;;9.27;8.23;;;12.80;99.90;;;;;;5132300;27;20397;-69
2023/05/06 04:20:47;;;;;;;12.35;9.05;;;12.70;99.90;;;;;;5132844;27;20062;-69
2023/05/06 04:23:14;;;;;;;12.73;7.90;;;12.70;99.90;;;;;;5114385;27;20527;-70
2023/05/06 04:25:41;;;;;;;12.57;7.90;;;12.80;99.90;;;;;;5133671;27;20020;-70
2023/05/06 04:28:10;;;;;;;14.40;9.80;;;12.80;99.90;;;;;;5133393;27;20026;-70
2023/05/06 04:30:35;;;;;;;11.43;8.13;;;12.80;99.90;;;;;;5133064;27;20382;-70
2023/05/06 04:33:02;;;;;;;14.10;10.13;;;12.80;99.90;;;;;;5133457;27;20029;-70
2023/05/06 04:35:28;;;;;;;12.23;9.25;;;12.70;99.90;;;;;;5132758;27;20084;-70
2023/05/06 04:37:55;;;;;;;12.73;9.57;;;12.70;99.90;;;;;;5131850;27;20495;-71
2023/05/06 04:40:24;;;;;;;11.30;8.80;;;12.70;99.90;;;;;;5132580;27;20038;-70
2023/05/06 04:42:50;;;;;;;14.60;9.90;;;12.70;99.90;;;;;;5133073;27;20027;-71
2023/05/06 04:45:16;;;;;;;11.38;8.95;;;12.70;99.90;;;;;;5132819;27;20023;-70
2023/05/06 04:47:42;;;;;;;10.90;8.80;;;12.80;99.90;;;;;;5133036;27;20110;-71
2023/05/06 04:50:08;;;;;;;15.40;10.70;;;12.80;99.90;;;;;;5133294;28;20031;-70
2023/05/06 04:52:35;;;;;;;14.25;11.88;;;12.80;99.90;;;;;;5131310;28;20065;-69
2023/05/06 04:55:01;;;;;;;16.48;10.20;;;12.80;99.90;;;;;;5131276;28;20026;-70
2023/05/06 04:57:27;;;;;;;13.90;11.50;;;12.80;99.90;;;;;;5133435;28;20038;-70
2023/05/06 04:59:52;;;;;;;12.48;10.07;;;12.80;99.90;;;;;;5132507;28;20027;-70
2023/05/06 05:02:18;;;;;;;14.55;9.80;;;12.90;99.90;;;;;;5131998;28;20027;-70
2023/05/06 05:04:44;;;;;;;15.48;10.88;;;13.00;99.90;;;;;;5133335;28;20027;-70
2023/05/06 05:07:10;;;;;;;14.52;10.80;;;12.90;99.90;;;;;;5132973;28;20023;-71
2023/05/06 05:09:35;;;;;;;15.57;11.05;;;13.00;99.90;;;;;;5133387;28;20023;-72
2023/05/06 05:12:02;;;;;;;15.88;12.75;;;13.00;99.90;;;;;;5133360;28;20023;-70
2023/05/06 05:14:27;;;;;;;18.02;14.05;;;13.10;99.90;;;;;;5132462;28;20029;-70
2023/05/06 05:16:53;;;;;;;13.45;10.70;;;13.00;99.90;;;;;;5132408;28;20378;-70
2023/05/06 05:19:20;;;;;;;13.93;10.57;;;13.10;99.90;;;;;;5133047;28;20448;-71
2023/05/06 05:21:46;;;;;;;18.88;12.90;;;13.20;99.90;;;;;;5132528;28;20015;-70
2023/05/06 05:24:11;;;;;;;13.98;10.75;;;13.10;99.90;;;;;;5132251;28;20579;-70
2023/05/06 05:26:37;;;;;;;17.15;13.30;;;13.20;99.90;;;;;;5133174;27;20023;-73
2023/05/06 05:29:03;;;;;;;18.05;12.05;;;13.20;99.90;;;;;;5136260;27;20023;-71
2023/05/06 05:31:30;;;;;;;15.10;10.70;;;13.20;99.90;;;;;;5137276;27;20034;-71
2023/05/06 05:33:56;;;;;;;18.77;12.07;;;13.20;99.90;;;;;;5136533;27;20077;-72
2023/05/06 05:36:22;;;;;;;16.52;11.07;;;13.30;99.90;;;;;;5136805;27;20031;-70
2023/05/06 05:38:48;;;;;;;19.88;13.10;;;13.40;99.90;;;;;;5136347;27;20463;-70
2023/05/06 05:41:14;;;;;;;17.52;11.82;;;13.50;99.90;;;;;;5136400;27;20022;-71
2023/05/06 05:43:40;;;;;;;14.07;11.13;;;13.50;99.90;;;;;;5136297;27;20023;-72
2023/05/06 05:46:06;;;;;;;17.70;12.43;;;13.60;99.90;;;;;;5136344;27;20523;-71
2023/05/06 05:48:32;;;;;;;14.77;11.98;;;13.70;99.90;;;;;;5135908;27;20031;-71
2023/05/06 05:51:00;;;;;;;14.63;11.35;;;13.80;99.90;;;;;;5136152;27;20502;-72
2023/05/06 05:53:26;;;;;;;15.40;12.05;;;13.80;99.90;;;;;;5136549;27;20023;-71
2023/05/06 05:55:52;;;;;;;15.05;13.02;;;13.80;99.90;;;;;;5136468;27;20034;-70
2023/05/06 05:58:18;;;;;;;21.05;15.18;;;13.80;99.90;;;;;;5136423;27;20074;-70
2023/05/06 06:00:43;;;;;;;25.17;15.43;;;13.80;99.90;;;;;;5136393;27;20383;-71
2023/05/06 06:03:10;;;;;;;6.70;6.10;;;13.80;99.90;;;;;;5136254;27;20027;-73
2023/05/06 06:05:35;;;;;;;14.88;12.60;;;13.90;99.90;;;;;;5131320;27;20028;-71
2023/05/06 06:08:01;;;;;;;15.18;11.55;;;14.00;99.90;;;;;;5122334;27;20542;-74
2023/05/06 06:10:27;;;;;;;11.05;9.63;;;14.00;99.90;;;;;;5127691;27;20493;-71
2023/05/06 06:12:53;;;;;;;12.45;9.13;;;14.10;99.90;;;;;;5123566;27;20037;-71
2023/05/06 06:15:19;;;;;;;11.27;9.57;;;14.00;99.90;;;;;;5119226;27;20019;-72
2023/05/06 06:17:44;;;;;;;16.95;9.65;;;14.10;99.90;;;;;;5127565;27;20141;-71
2023/05/06 06:20:11;;;;;;;11.90;9.27;;;14.10;99.90;;;;;;5124530;27;20036;-71
2023/05/06 06:22:37;;;;;;;14.45;10.73;;;14.20;99.90;;;;;;5126899;27;20058;-70
2023/05/06 06:25:03;;;;;;;12.55;8.98;;;14.10;99.90;;;;;;5124681;27;20027;-71
2023/05/06 06:27:28;;;;;;;12.93;10.50;;;14.10;99.90;;;;;;5122674;27;20083;-71
2023/05/06 06:29:54;;;;;;;13.57;9.38;;;14.10;99.90;;;;;;5125942;27;20098;-71
2023/05/06 06:32:20;;;;;;;12.55;8.77;;;14.30;99.90;;;;;;5125593;27;20058;-73
2023/05/06 06:34:45;;;;;;;11.82;8.23;;;14.30;99.90;;;;;;5134447;27;20361;-73
2023/05/06 06:37:11;;;;;;;15.15;8.25;;;14.20;99.90;;;;;;5121788;27;20554;-73
2023/05/06 06:39:37;;;;;;;10.93;8.98;;;14.30;99.90;;;;;;5114299;28;20545;-73
2023/05/06 06:42:03;;;;;;;15.75;9.15;;;14.30;99.90;;;;;;5115089;28;20024;-74
2023/05/06 06:44:33;;;;;;;13.43;8.00;;;14.40;99.90;;;;;;5119940;27;20027;-73
2023/05/06 06:46:59;;;;;;;12.32;7.93;;;14.40;99.90;;;;;;5123857;27;20027;-73
2023/05/06 06:49:25;;;;;;;11.77;8.40;;;14.50;99.90;;;;;;5124849;27;20038;-73
2023/05/06 06:51:51;;;;;;;11.38;7.88;;;14.60;99.90;;;;;;5123395;27;20114;-74
2023/05/06 06:54:17;;;;;;;12.50;7.22;;;14.60;99.90;;;;;;5125293;27;20102;-74
2023/05/06 06:56:43;;;;;;;10.77;7.60;;;14.70;99.90;;;;;;5122845;27;20024;-73
2023/05/06 06:59:08;;;;;;;19.27;9.68;;;14.80;99.90;;;;;;5125302;27;20024;-73
2023/05/06 07:01:34;;;;;;;14.50;9.40;;;14.80;99.90;;;;;;5120283;27;20031;-72
2023/05/06 07:04:00;;;;;;;14.30;8.10;;;14.90;99.90;;;;;;5113861;28;20361;-73
2023/05/06 07:06:26;;;;;;;12.63;7.60;;;14.80;99.90;;;;;;5113785;28;20016;-73
2023/05/06 07:08:51;;;;;;;9.90;6.68;;;14.90;99.90;;;;;;5114721;28;20062;-73
2023/05/06 07:11:17;;;;;;;11.50;7.47;;;14.90;99.90;;;;;;5114397;28;20661;-72
2023/05/06 07:13:43;;;;;;;10.60;6.82;;;15.10;99.90;;;;;;5113737;28;20024;-73
2023/05/06 07:16:08;;;;;;;13.75;7.68;;;15.20;99.90;;;;;;5113560;28;20375;-74
2023/05/06 07:18:34;;;;;;;12.20;6.45;;;15.30;99.90;;;;;;5113885;28;20577;-73
2023/05/06 07:21:00;;;;;;;11.90;6.80;;;15.30;99.90;;;;;;5116920;27;20023;-73
2023/05/06 07:23:26;;;;;;;10.55;6.78;;;15.50;99.90;;;;;;5134493;27;20027;-74
2023/05/06 07:25:51;;;;;;;10.48;5.85;;;15.50;99.90;;;;;;5133925;27;20023;-73
2023/05/06 07:28:17;;;;;;;9.93;5.85;;;15.60;99.90;;;;;;5133217;27;20030;-74
2023/05/06 07:30:43;;;;;;;11.65;6.35;;;15.80;99.90;;;;;;5131064;27;20464;-74
2023/05/06 07:33:09;;;;;;;12.75;6.43;;;15.90;99.90;;;;;;5122244;27;20463;-75
2023/05/06 07:35:36;;;;;;;10.15;5.53;;;16.10;99.90;;;;;;5125904;27;20034;-74
2023/05/06 07:38:01;;;;;;;10.90;6.03;;;16.10;99.90;;;;;;5115898;27;20491;-73
2023/05/06 07:40:27;;;;;;;9.05;5.22;;;16.20;99.90;;;;;;5134219;27;20019;-74
2023/05/06 07:42:53;;;;;;;10.38;5.78;;;16.40;99.90;;;;;;5131215;27;20027;-74
2023/05/06 07:45:22;;;;;;;7.28;5.25;;;16.50;99.90;;;;;;5124899;27;20081;-74
2023/05/06 07:47:48;;;;;;;11.88;6.25;;;16.60;99.90;;;;;;5124006;27;20027;-74
2023/05/06 07:50:13;;;;;;;9.57;5.90;;;16.80;99.90;;;;;;5123747;27;20023;-74
2023/05/06 07:52:39;;;;;;;5.28;4.32;;;16.90;99.90;;;;;;5123071;27;20020;-75
2023/05/06 07:55:08;;;;;;;6.90;4.68;;;16.90;99.90;;;;;;5121826;27;20026;-73
2023/05/06 07:57:34;;;;;;;7.35;4.72;;;17.00;99.90;;;;;;5121550;27;20119;-73
2023/05/06 07:59:59;;;;;;;8.70;4.82;;;17.10;99.90;;;;;;5122737;27;20094;-73
2023/05/06 08:02:25;;;;;;;7.22;4.78;;;17.10;99.90;;;;;;5102472;27;20028;-76
2023/05/06 08:04:51;;;;;;;7.30;4.72;;;17.30;99.90;;;;;;5110889;27;20378;-74
2023/05/06 08:07:17;;;;;;;6.82;4.90;;;17.20;99.90;;;;;;5132668;27;20097;-77
2023/05/06 08:09:43;;;;;;;11.10;4.57;;;17.40;99.90;;;;;;5130793;27;20118;-75
2023/05/06 08:12:09;;;;;;;7.05;4.15;;;17.50;99.90;;;;;;5100533;28;20032;-74
2023/05/06 08:14:35;;;;;;;5.80;3.83;;;17.60;99.90;;;;;;5110682;28;20019;-75
2023/05/06 08:17:01;;;;;;;7.45;4.07;;;17.70;99.90;;;;;;5092600;28;20035;-75
2023/05/06 08:19:27;;;;;;;6.15;3.08;;;17.70;99.90;;;;;;5110868;28;20372;-75
2023/05/06 08:21:53;;;;;;;7.15;3.80;;;17.70;99.90;;;;;;5122847;27;20038;-74
2023/05/06 08:24:19;;;;;;;4.63;3.45;;;17.90;99.90;;;;;;5131752;27;20027;-75
2023/05/06 08:26:45;;;;;;;7.68;3.85;;;18.00;99.90;;;;;;5126705;27;20019;-75
2023/05/06 08:29:10;;;;;;;7.35;3.33;;;18.30;99.90;;;;;;5115843;27;20034;-78
2023/05/06 08:31:36;;;;;;;5.47;3.25;;;18.40;99.90;;;;;;5122086;27;20031;-77
2023/05/06 08:34:02;;;;;;;7.82;4.72;;;18.50;99.90;;;;;;5120993;27;20051;-78
2023/05/06 08:36:27;;;;;;;5.40;4.20;;;18.50;99.90;;;;;;5123342;27;20027;-78
2023/05/06 08:38:53;;;;;;;6.70;3.95;;;18.60;99.90;;;;;;5125059;27;20020;-78
2023/05/06 08:41:20;;;;;;;6.22;3.88;;;18.80;99.90;;;;;;5126492;27;20019;-78
2023/05/06 08:43:48;;;;;;;4.43;3.65;;;18.70;99.90;;;;;;5103560;28;20114;-78
2023/05/06 08:46:14;;;;;;;5.72;3.95;;;19.00;99.90;;;;;;5118873;27;20023;-79
2023/05/06 08:48:40;;;;;;;7.57;3.78;;;19.20;99.90;;;;;;5102179;28;20028;-79
2023/05/06 08:51:07;;;;;;;4.65;3.17;;;19.30;99.90;;;;;;5112435;28;20526;-80
2023/05/06 08:53:34;;;;;;;5.72;3.22;;;19.50;99.90;;;;;;5101869;28;20034;-79
2023/05/06 08:56:05;;;;;;;4.43;3.00;;;19.60;99.90;;;;;;5112910;28;20059;-79
2023/05/06 08:58:37;;;;;;;7.83;3.27;;;19.60;99.90;;;;;;5129682;28;20360;-79
2023/05/06 09:01:03;;;;;;;4.30;2.58;;;19.60;99.90;;;;;;5132193;28;20260;-79
2023/05/06 09:03:29;;;;;;;7.13;3.28;;;19.70;99.90;;;;;;5135276;27;20076;-80
2023/05/06 09:05:56;;;;;;;4.68;3.00;;;19.70;99.90;;;;;;5098739;27;20067;-79
2023/05/06 09:08:23;;;;;;;6.75;2.88;;;19.70;99.90;;;;;;5108437;27;20100;-81
2023/05/06 09:10:48;;;;;;;6.63;2.72;;;19.90;99.90;;;;;;5129531;27;20065;-82
2023/05/06 09:13:16;;;;;;;5.55;2.72;;;19.70;99.90;;;;;;5129862;27;20773;-82
2023/05/06 09:15:46;;;;;;;7.18;2.63;;;19.80;99.90;;;;;;5128006;27;20106;-83
2023/05/06 09:18:12;;;;;;;2.47;2.20;;;20.10;99.90;;;;;;5130979;27;20034;-82
2023/05/06 09:20:46;;;;;;;3.95;2.30;;;20.30;99.90;;;;;;5112358;27;20035;-81
2023/05/06 09:23:14;;;;;;;2.03;1.83;;;20.50;99.90;;;;;;5131448;27;20107;-80
2023/05/06 09:25:41;;;;;;;3.47;2.13;;;20.20;99.90;;;;;;5112753;27;20008;-81
2023/05/06 09:28:09;;;;;;;4.00;2.10;;;20.20;99.90;;;;;;5129895;27;20030;-82
2023/05/06 09:30:43;;;;;;;4.95;2.60;;;20.20;99.90;;;;;;5130642;27;20021;-82
2023/05/06 09:33:11;;;;;;;4.30;1.95;;;20.40;99.90;;;;;;5130588;27;20030;-82
2023/05/06 09:35:37;;;;;;;3.15;1.83;;;20.60;99.90;;;;;;5127222;27;20023;-81
2023/05/06 09:38:04;;;;;;;2.72;1.90;;;20.60;99.90;;;;;;5111713;27;20066;-83
2023/05/06 09:40:30;;;;;;;4.72;2.28;;;20.70;99.90;;;;;;5110323;27;20016;-81
2023/05/06 09:42:57;;;;;;;4.55;2.65;;;21.00;99.90;;;;;;5111412;27;20432;-81
2023/05/06 09:45:23;;;;;;;6.88;2.33;;;21.20;99.90;;;;;;5111936;27;20023;-81
2023/05/06 09:47:52;;;;;;;3.03;2.20;;;21.20;99.90;;;;;;5130787;27;20031;-82
2023/05/06 09:50:21;;;;;;;4.88;2.40;;;21.40;99.90;;;;;;5112402;27;20054;-82
2023/05/06 09:52:47;;;;;;;4.38;2.08;;;21.20;99.90;;;;;;5111696;27;20037;-82
2023/05/06 09:55:14;;;;;;;5.82;2.08;;;21.30;99.90;;;;;;5129856;27;20023;-81
2023/05/06 09:57:41;;;;;;;4.35;1.83;;;21.20;99.90;;;;;;5113122;27;20083;-82
2023/05/06 10:00:13;;;;;;;3.35;1.95;;;21.20;99.90;;;;;;5131209;27;20027;-82
2023/05/06 10:02:44;;;;;;;3.42;2.42;;;21.10;99.90;;;;;;5113644;27;20367;-82
2023/05/06 10:05:11;;;;;;;4.70;2.40;;;21.00;99.90;;;;;;5111434;27;20023;-82
2023/05/06 10:07:38;;;;;;;4.28;2.45;;;21.00;99.90;;;;;;5128936;27;20031;-82
2023/05/06 10:10:08;;;;;;;3.42;1.90;;;20.90;99.90;;;;;;5130120;27;20011;-82
2023/05/06 10:12:35;;;;;;;2.97;2.65;;;21.00;99.90;;;;;;5111130;27;20058;-82
2023/05/06 10:15:03;;;;;;;3.05;2.20;;;20.90;99.90;;;;;;5110954;27;20011;-81
2023/05/06 10:17:31;;;;;;;5.45;1.92;;;20.90;99.90;;;;;;5129304;27;20038;-82
2023/05/06 10:19:59;;;;;;;2.97;2.20;;;21.00;99.90;;;;;;5112514;27;20069;-82
2023/05/06 10:22:55;;;;;;;4.00;2.08;;;21.00;99.90;;;;;;5111571;27;20030;-81
2023/05/06 10:25:30;;;;;;;6.25;2.10;;;21.30;99.90;;;;;;5088839;27;20080;-84
2023/05/06 10:27:55;;;;;;;3.28;1.85;;;21.70;99.90;;;;;;5110183;27;20178;-81
2023/05/06 10:30:22;;;;;;;3.17;2.10;;;22.00;99.90;;;;;;5130137;27;20922;-80
2023/05/06 10:32:51;;;;;;;4.10;2.10;;;22.30;99.90;;;;;;5113495;28;20072;-80
2023/05/06 10:35:40;;;;;;;3.70;2.22;;;22.00;99.90;;;;;;5113223;28;20428;-81
2023/05/06 10:38:13;;;;;;;3.75;1.77;;;21.90;99.90;;;;;;5113599;28;20031;-79
2023/05/06 10:40:39;;;;;;;1.88;1.60;;;21.90;99.90;;;;;;5115243;28;20028;-81
2023/05/06 10:43:26;;;;;;;6.72;1.90;;;22.30;99.90;;;;;;5119760;27;20016;-81
2023/05/06 10:46:17;;;;;;;5.00;1.73;;;22.30;99.90;;;;;;5117241;27;20471;-77
2023/05/06 10:49:09;;;;;;;9.20;1.85;;;22.50;99.90;;;;;;5134383;27;20031;-80
2023/05/06 10:51:38;;;;;;;4.07;1.67;;;22.30;99.90;;;;;;5135613;27;20107;-80
2023/05/06 10:54:09;;;;;;;2.88;1.60;;;22.10;99.90;;;;;;5116730;27;20536;-80
2023/05/06 10:56:58;;;;;;;2.95;1.73;;;22.10;99.90;;;;;;5116992;27;20478;-80
2023/05/06 10:59:43;;;;;;;3.80;1.00;;;21.90;99.90;;;;;;5112426;27;20479;-80
2023/05/06 11:04:59;;;;;;;5.32;1.70;;;22.10;99.90;;;;;;5117468;27;20126;-80
2023/05/06 11:07:26;;;;;;;3.80;1.60;;;22.30;99.90;;;;;;5116537;27;20111;-81
2023/05/06 11:09:57;;;;;;;2.67;1.63;;;22.20;99.90;;;;;;5135137;27;20051;-82
2023/05/06 11:12:50;;;;;;;6.40;2.30;;;22.30;99.90;;;;;;5116793;27;20023;-80
2023/05/06 11:15:26;;;;;;;4.18;1.45;;;22.40;99.90;;;;;;5116798;27;20019;-81
2023/05/06 11:17:54;;;;;;;4.60;1.30;;;22.40;99.90;;;;;;5134708;27;20049;-79
2023/05/06 11:20:22;;;;;;;2.05;1.00;;;22.60;99.90;;;;;;5110360;27;20034;-79
2023/05/06 11:22:48;;;;;;;3.90;1.20;;;22.70;99.90;;;;;;5134617;27;20084;-80
2023/05/06 11:25:34;;;;;;;2.83;0.93;;;22.70;99.90;;;;;;5106199;27;20387;-78
2023/05/06 11:28:00;;;;;;;4.55;1.20;;;23.00;99.90;;;;;;5115315;27;20031;-80
2023/05/06 11:30:26;;;;;;;3.13;1.10;;;23.30;99.90;;;;;;5133818;27;20023;-79
2023/05/06 11:32:54;;;;;;;2.35;1.25;;;23.30;99.90;;;;;;5133819;27;20030;-79
2023/05/06 11:35:21;;;;;;;3.78;1.27;;;23.30;99.90;;;;;;5130499;27;20059;-79
2023/05/06 11:37:47;;;;;;;3.70;1.10;;;23.10;99.90;;;;;;5112822;27;20042;-79
2023/05/06 11:40:14;;;;;;;3.03;1.10;;;23.10;99.90;;;;;;5115970;27;20027;-80
2023/05/06 11:42:40;;;;;;;2.95;1.40;;;23.30;99.90;;;;;;5134498;27;20532;-79
2023/05/06 11:45:06;;;;;;;4.60;1.45;;;23.30;99.90;;;;;;5115973;27;20011;-79
2023/05/06 11:47:32;;;;;;;2.55;1.10;;;23.10;99.90;;;;;;5132870;27;20034;-79
2023/05/06 11:49:58;;;;;;;2.13;1.70;;;22.90;99.90;;;;;;5115104;27;20113;-79
2023/05/06 11:52:24;;;;;;;2.65;1.13;;;23.00;99.90;;;;;;5134044;27;20475;-83
2023/05/06 11:54:52;;;;;;;2.85;1.10;;;23.10;99.90;;;;;;5115343;27;20026;-79
2023/05/06 11:57:19;;;;;;;1.90;0.90;;;23.10;99.90;;;;;;5115407;27;20689;-79
2023/05/06 11:59:45;;;;;;;6.80;1.10;;;23.20;99.90;;;;;;5115591;27;20030;-79
2023/05/06 12:02:12;;;;;;;1.83;1.00;;;23.30;99.90;;;;;;5133568;27;20030;-79
2023/05/06 12:04:43;;;;;;;1.92;1.23;;;23.30;99.90;;;;;;5115156;27;20160;-79
2023/05/06 12:07:12;;;;;;;2.30;1.27;;;22.90;99.90;;;;;;5133746;27;20079;-81
2023/05/06 12:09:46;;;;;;;2.17;1.15;;;22.80;99.90;;;;;;5133453;27;20144;-81
2023/05/06 12:12:16;;;;;;;3.08;1.13;;;22.80;99.90;;;;;;5133232;27;20015;-80
2023/05/06 12:14:43;;;;;;;2.95;1.33;;;23.10;99.90;;;;;;5133663;27;20019;-82
2023/05/06 12:17:09;;;;;;;6.28;1.20;;;23.20;99.90;;;;;;5133529;27;20031;-82
2023/05/06 12:19:35;;;;;;;3.58;1.20;;;23.30;99.90;;;;;;5114681;27;20483;-82
2023/05/06 12:22:14;;;;;;;3.97;1.38;;;23.30;99.90;;;;;;5133605;27;20031;-82
2023/05/06 12:24:40;;;;;;;2.42;0.90;;;23.30;99.90;;;;;;5113693;27;20030;-82
2023/05/06 12:27:06;;;;;;;2.85;1.10;;;23.40;99.90;;;;;;5114221;27;20027;-82
2023/05/06 12:29:32;;;;;;;2.53;1.17;;;23.40;99.90;;;;;;5133581;27;20030;-82
2023/05/06 12:32:09;;;;;;;3.75;1.20;;;23.50;99.90;;;;;;5133487;27;20166;-81
2023/05/06 12:34:40;;;;;;;3.42;1.15;;;23.40;99.90;;;;;;5133355;27;20043;-82
2023/05/06 12:37:07;;;;;;;2.67;1.10;;;23.40;99.90;;;;;;5114916;27;20476;-81
2023/05/06 12:39:38;;;;;;;4.90;1.25;;;23.40;99.90;;;;;;5115630;28;20067;-82
2023/05/06 12:42:05;;;;;;;2.40;1.15;;;23.40;99.90;;;;;;5114856;27;20085;-82